createdAt,value
2018-04-14T00:00:21.867Z,139.63
2018-04-14T00:02:50.940Z,139.07
2018-04-14T00:05:19.223Z,129.80
2018-04-14T00:07:47.505Z,119.83
2018-04-14T00:10:15.778Z,128.37
2018-04-14T00:12:44.068Z,138.57
2018-04-14T00:15:12.348Z,141.30
2018-04-14T00:17:41.387Z,134.97
2018-04-14T00:20:09.719Z,143.53
2018-04-14T00:22:37.994Z,142.20
2018-04-14T00:25:06.301Z,141.03
2018-04-14T00:27:34.571Z,129.97
2018-04-14T00:30:02.859Z,134.23
2018-04-14T00:32:31.193Z,133.37
2018-04-14T00:34:59.465Z,127.43
2018-04-14T00:37:27.749Z,154.07
2018-04-14T00:39:56.030Z,174.13
2018-04-14T00:42:24.498Z,155.50
2018-04-14T00:44:53.568Z,159.63
2018-04-14T00:47:21.856Z,163.43
2018-04-14T00:49:50.203Z,148.07
2018-04-14T00:52:18.498Z,157.23
2018-04-14T00:54:46.777Z,156.33
2018-04-14T00:57:15.084Z,146.83
2018-04-14T00:59:43.373Z,156.40
2018-04-14T01:02:11.652Z,176.57
2018-04-14T01:04:39.928Z,165.27
2018-04-14T01:07:08.209Z,159.93
2018-04-14T01:09:36.514Z,149.90
2018-04-14T01:12:04.781Z,157.97
2018-04-14T01:14:33.057Z,160.17
2018-04-14T01:17:01.341Z,148.50
2018-04-14T01:19:29.662Z,143.20
2018-04-14T01:21:57.977Z,137.17
2018-04-14T01:24:26.274Z,144.67
2018-04-14T01:26:54.557Z,158.13
2018-04-14T01:29:22.838Z,152.67
2018-04-14T01:31:51.145Z,155.50
2018-04-14T01:34:19.487Z,161.90
2018-04-14T01:36:47.759Z,178.97
2018-04-14T01:39:16.036Z,176.83
2018-04-14T01:41:44.306Z,197.67
2018-04-14T01:44:12.584Z,186.90
2018-04-14T01:46:41.152Z,182.23
2018-04-14T01:49:09.449Z,189.37
2018-04-14T01:51:38.497Z,177.80
2018-04-14T01:54:06.786Z,187.73
2018-04-14T01:56:35.054Z,197.70
2018-04-14T01:59:03.326Z,211.20
2018-04-14T02:01:31.614Z,219.80
2018-04-14T02:03:59.904Z,213.90
2018-04-14T02:06:28.219Z,219.63
2018-04-14T02:08:56.499Z,242.20
2018-04-14T02:11:25.921Z,229.47
2018-04-14T02:13:54.218Z,210.93
2018-04-14T02:16:22.492Z,209.97
2018-04-14T02:18:50.805Z,214.83
2018-04-14T02:21:19.115Z,215.20
2018-04-14T02:23:47.392Z,257.93
2018-04-14T02:26:15.673Z,246.23
2018-04-14T02:28:43.953Z,235.47
2018-04-14T02:31:12.240Z,251.37
2018-04-14T02:33:40.515Z,244.90
2018-04-14T02:36:08.794Z,206.17
2018-04-14T02:38:37.071Z,246.93
2018-04-14T02:41:05.358Z,259.50
2018-04-14T02:43:33.646Z,221.80
2018-04-14T02:46:01.910Z,200.17
2018-04-14T02:48:30.196Z,234.03
2018-04-14T02:50:58.494Z,253.57
2018-04-14T02:53:27.545Z,256.97
2018-04-14T02:55:55.822Z,249.47
2018-04-14T02:58:24.106Z,222.17
2018-04-14T03:00:52.397Z,269.30
2018-04-14T03:03:20.671Z,235.63
2018-04-14T03:05:48.950Z,200.23
2018-04-14T03:08:17.225Z,222.30
2018-04-14T03:10:45.517Z,206.63
2018-04-14T03:13:13.797Z,108.43
2018-04-14T03:15:42.082Z,200.23
2018-04-14T03:18:10.362Z,194.80
2018-04-14T03:20:38.660Z,137.10
2018-04-14T03:23:06.944Z,84.70
2018-04-14T03:25:35.220Z,162.37
2018-04-14T03:28:03.527Z,272.33
2018-04-14T03:30:31.784Z,212.97
2018-04-14T03:33:00.095Z,174.33
2018-04-14T03:35:29.139Z,276.87
2018-04-14T03:37:57.420Z,246.90
2018-04-14T03:40:25.701Z,228.93
2018-04-14T03:42:53.998Z,195.83
2018-04-14T03:45:23.060Z,204.20
2018-04-14T03:47:51.350Z,232.70
2018-04-14T03:50:19.633Z,191.63
2018-04-14T03:52:47.905Z,172.67
2018-04-14T03:55:16.196Z,212.03
2018-04-14T03:57:45.255Z,195.00
2018-04-14T04:00:13.556Z,230.53
2018-04-14T04:02:41.829Z,71.77
2018-04-14T04:05:10.165Z,183.77
2018-04-14T04:07:38.459Z,193.90
2018-04-14T04:10:06.763Z,219.07
2018-04-14T04:12:35.039Z,205.13
2018-04-14T04:15:04.095Z,219.40
2018-04-14T04:17:32.397Z,261.03
2018-04-14T04:20:12.614Z,258.03
2018-04-14T04:22:52.709Z,206.47
2018-04-14T04:25:39.797Z,97.70
2018-04-14T04:28:08.071Z,61.90
2018-04-14T04:30:36.372Z,155.93
2018-04-14T04:33:04.647Z,196.50
2018-04-14T04:35:32.947Z,184.30
2018-04-14T04:38:01.984Z,245.10
2018-04-14T04:40:30.296Z,258.60
2018-04-14T04:42:58.589Z,155.40
2018-04-14T04:45:27.633Z,202.50
2018-04-14T04:47:55.924Z,167.23
2018-04-14T04:50:24.219Z,81.00
2018-04-14T04:52:52.522Z,157.60
2018-04-14T04:55:20.792Z,217.00
2018-04-14T04:57:49.111Z,141.17
2018-04-14T05:00:17.392Z,129.80
2018-04-14T05:02:45.694Z,232.43
2018-04-14T05:05:14.764Z,173.00
2018-04-14T05:07:43.023Z,200.33
2018-04-14T05:10:11.313Z,217.53
2018-04-14T05:12:39.584Z,113.10
2018-04-14T05:15:07.901Z,181.80
2018-04-14T05:17:36.943Z,175.33
2018-04-14T05:20:05.228Z,208.43
2018-04-14T05:22:33.512Z,170.20
2018-04-14T05:25:01.779Z,233.27
2018-04-14T05:27:30.071Z,213.07
2018-04-14T05:29:58.344Z,87.47
2018-04-14T05:32:27.527Z,95.57
2018-04-14T05:34:55.798Z,80.57
2018-04-14T05:37:24.081Z,51.80
2018-04-14T05:39:52.353Z,123.77
2018-04-14T05:42:20.633Z,139.90
2018-04-14T05:44:48.905Z,150.23
2018-04-14T05:47:17.207Z,170.37
2018-04-14T05:49:46.285Z,181.80
2018-04-14T05:52:14.583Z,153.03
2018-04-14T05:54:43.655Z,169.37
2018-04-14T05:57:11.949Z,134.30
2018-04-14T05:59:40.231Z,155.50
2018-04-14T06:02:08.535Z,139.57
2018-04-14T06:04:36.830Z,110.30
2018-04-14T06:07:05.096Z,58.53
2018-04-14T06:09:33.383Z,152.07
2018-04-14T06:12:01.679Z,68.60
2018-04-14T06:14:29.955Z,132.13
2018-04-14T06:16:58.222Z,89.77
2018-04-14T06:19:26.499Z,129.57
2018-04-14T06:21:54.755Z,142.87
2018-04-14T06:24:23.037Z,131.13
2018-04-14T06:26:51.295Z,75.47
2018-04-14T06:29:19.590Z,116.43
2018-04-14T06:31:47.868Z,122.90
2018-04-14T06:34:16.159Z,147.83
2018-04-14T06:36:44.454Z,129.37
2018-04-14T06:39:12.734Z,126.67
2018-04-14T06:41:41.804Z,131.23
2018-04-14T06:44:10.093Z,161.90
2018-04-14T06:46:38.376Z,113.03
2018-04-14T06:49:07.438Z,131.67
2018-04-14T06:51:35.730Z,127.33
2018-04-14T06:54:03.997Z,91.67
2018-04-14T06:56:32.275Z,90.80
2018-04-14T06:59:00.592Z,128.30
2018-04-14T07:01:28.877Z,113.60
2018-04-14T07:03:57.159Z,116.57
2018-04-14T07:06:25.495Z,106.63
2018-04-14T07:08:54.392Z,123.17
2018-04-14T07:11:23.453Z,101.73
2018-04-14T07:13:51.759Z,66.20
2018-04-14T07:16:20.805Z,80.70
2018-04-14T07:18:49.100Z,53.13
2018-04-14T07:21:17.379Z,37.93
2018-04-14T07:23:45.643Z,65.47
2018-04-14T07:26:13.946Z,69.90
2018-04-14T07:28:42.216Z,39.93
2018-04-14T07:31:10.513Z,86.20
2018-04-14T07:33:38.793Z,53.17
2018-04-14T07:36:07.129Z,71.47
2018-04-14T07:38:35.470Z,66.73
2018-04-14T07:41:03.754Z,57.13
2018-04-14T07:43:32.060Z,62.77
2018-04-14T07:46:01.324Z,46.27
2018-04-14T07:48:29.603Z,34.50
2018-04-14T07:50:57.887Z,38.10
2018-04-14T07:53:26.152Z,50.80
2018-04-14T07:55:54.435Z,35.03
2018-04-14T07:58:22.788Z,41.90
2018-04-14T08:00:51.064Z,42.37
2018-04-14T08:03:19.377Z,42.47
2018-04-14T08:05:47.684Z,51.93
2018-04-14T08:08:16.751Z,58.63
2018-04-14T08:10:45.065Z,72.27
2018-04-14T08:13:13.358Z,42.93
2018-04-14T08:15:41.630Z,56.37
2018-04-14T08:18:09.943Z,62.90
2018-04-14T08:20:38.216Z,52.67
2018-04-14T08:23:06.511Z,49.47
2018-04-14T08:25:35.726Z,53.87
2018-04-14T08:28:04.816Z,41.60
2018-04-14T08:30:34.860Z,50.03
2018-04-14T08:33:03.684Z,48.30
2018-04-14T08:35:32.103Z,34.23
2018-04-14T08:38:01.297Z,21.03
2018-04-14T08:40:30.572Z,47.00
2018-04-14T08:42:59.782Z,41.27
2018-04-14T08:45:28.092Z,22.37
2018-04-14T08:47:56.392Z,43.90
2018-04-14T08:50:24.695Z,38.90
2018-04-14T08:52:53.007Z,36.10
2018-04-14T08:55:21.306Z,23.17
2018-04-14T08:57:49.612Z,34.00
2018-04-14T09:00:17.905Z,37.93
2018-04-14T09:02:46.178Z,37.87
2018-04-14T09:05:14.486Z,28.47
2018-04-14T09:07:43.544Z,30.80
2018-04-14T09:10:11.857Z,38.87
2018-04-14T09:12:40.191Z,43.73
2018-04-14T09:15:14.305Z,35.93
2018-04-14T09:17:42.777Z,23.20
2018-04-14T09:20:11.070Z,32.03
2018-04-14T09:22:39.365Z,37.47
2018-04-14T09:25:08.431Z,40.10
2018-04-14T09:27:36.715Z,22.63
2018-04-14T09:30:04.987Z,37.40
2018-04-14T09:32:33.345Z,40.10
2018-04-14T09:35:01.636Z,36.27
2018-04-14T09:37:29.940Z,18.73
2018-04-14T09:39:58.241Z,30.70
2018-04-14T09:42:26.807Z,34.90
2018-04-14T09:44:55.120Z,24.00
2018-04-14T09:47:23.434Z,33.73
2018-04-14T09:49:51.695Z,27.73
2018-04-14T09:52:19.990Z,25.07
2018-04-14T09:54:49.032Z,26.37
2018-04-14T09:57:17.330Z,28.87
2018-04-14T09:59:45.620Z,39.57
2018-04-14T10:02:13.975Z,23.87
2018-04-14T10:04:42.255Z,21.60
2018-04-14T10:07:11.551Z,22.20
2018-04-14T10:09:39.977Z,28.90
2018-04-14T10:12:09.020Z,25.63
2018-04-14T10:14:37.427Z,33.40
2018-04-14T10:17:05.723Z,31.10
2018-04-14T10:19:35.144Z,34.33
2018-04-14T10:22:05.025Z,24.60
2018-04-14T10:24:36.451Z,34.97
2018-04-14T10:27:04.809Z,31.03
2018-04-14T10:29:33.067Z,30.40
2018-04-14T10:32:01.425Z,29.73
2018-04-14T10:34:29.723Z,17.27
2018-04-14T10:36:58.029Z,27.87
2018-04-14T10:39:26.395Z,29.70
2018-04-14T10:41:55.218Z,29.17
2018-04-14T10:44:23.535Z,27.23
2018-04-14T10:46:51.876Z,28.70
2018-04-14T10:49:20.215Z,22.50
2018-04-14T10:51:48.488Z,23.43
2018-04-14T10:54:16.783Z,22.73
2018-04-14T10:56:45.114Z,18.27
2018-04-14T10:59:13.392Z,25.07
2018-04-14T11:01:41.698Z,21.77
2018-04-14T11:04:10.060Z,22.03
2018-04-14T11:06:38.371Z,18.50
2018-04-14T11:09:06.665Z,23.03
2018-04-14T11:11:35.948Z,17.57
2018-04-14T11:14:04.248Z,17.87
2018-04-14T11:16:33.316Z,15.27
2018-04-14T11:19:01.690Z,19.03
2018-04-14T11:21:30.795Z,16.27
2018-04-14T11:26:32.519Z,12.23
2018-04-14T11:29:00.830Z,13.33
2018-04-14T11:31:29.138Z,16.80
2018-04-14T11:33:57.472Z,12.03
2018-04-14T11:36:25.858Z,9.73
2018-04-14T11:38:54.207Z,7.13
2018-04-14T11:41:23.241Z,10.97
2018-04-14T11:43:51.513Z,4.37
2018-04-14T11:46:19.851Z,6.27
2018-04-14T11:48:48.123Z,6.13
2018-04-14T11:51:17.408Z,9.40
2018-04-14T11:53:46.177Z,4.80
2018-04-14T11:56:14.512Z,3.20
2018-04-14T11:58:42.873Z,7.13
2018-04-14T12:01:11.156Z,4.73
2018-04-14T12:03:41.016Z,3.83
2018-04-14T12:06:09.308Z,5.90
2018-04-14T12:11:10.804Z,2.50
2018-04-14T12:13:39.169Z,2.27
2018-04-14T12:16:08.070Z,5.00
2018-04-14T12:18:36.521Z,4.33
2018-04-14T12:21:05.416Z,4.60
2018-04-14T12:23:33.905Z,4.40
2018-04-14T12:26:02.268Z,6.00
2018-04-14T12:28:30.609Z,4.67
2018-04-14T12:30:59.119Z,3.27
2018-04-14T12:33:27.531Z,3.50
2018-04-14T12:35:56.161Z,3.20
2018-04-14T12:38:24.523Z,4.73
2018-04-14T12:40:52.911Z,5.83
2018-04-14T12:43:22.004Z,4.00
2018-04-14T12:45:50.416Z,4.97
2018-04-14T12:48:18.701Z,4.83
2018-04-14T12:50:47.290Z,3.93
2018-04-14T12:53:15.592Z,4.57
2018-04-14T12:55:44.136Z,2.47
2018-04-14T12:58:12.439Z,2.80
2018-04-14T13:00:40.873Z,2.40
2018-04-14T13:03:09.438Z,3.13
2018-04-14T13:05:37.866Z,2.97
2018-04-14T13:08:06.133Z,2.87
2018-04-14T13:10:34.464Z,2.00
2018-04-14T13:13:02.903Z,3.47
2018-04-14T13:15:31.265Z,2.77
2018-04-14T13:17:59.691Z,3.37
2018-04-14T13:20:28.069Z,4.70
2018-04-14T13:22:56.619Z,5.87
2018-04-14T13:25:25.827Z,1.93
2018-04-14T13:27:54.170Z,2.30
2018-04-14T13:30:24.207Z,3.10
2018-04-14T13:32:52.851Z,2.77
2018-04-14T13:35:21.131Z,2.23
2018-04-14T13:37:49.467Z,2.50
2018-04-14T13:40:18.582Z,2.07
2018-04-14T13:42:46.883Z,2.77
2018-04-14T13:45:15.191Z,2.73
2018-04-14T13:47:43.510Z,1.73
2018-04-14T13:50:11.815Z,2.30
2018-04-14T13:52:40.674Z,2.60
2018-04-14T13:55:11.101Z,5.30
2018-04-14T13:57:43.504Z,3.10
2018-04-14T14:00:12.433Z,5.63
2018-04-14T14:02:44.015Z,3.87
2018-04-14T14:05:13.537Z,2.57
2018-04-14T14:07:49.816Z,5.77
2018-04-14T14:10:20.107Z,4.73
2018-04-14T14:12:48.503Z,4.67
2018-04-14T14:15:20.048Z,4.00
2018-04-14T14:17:49.842Z,2.97
2018-04-14T14:20:18.444Z,4.03
2018-04-14T14:22:51.143Z,3.60
2018-04-14T14:25:20.589Z,4.37
2018-04-14T14:27:55.986Z,1.70
2018-04-14T14:30:28.987Z,1.77
2018-04-14T14:32:59.354Z,3.40
2018-04-14T14:35:29.653Z,5.57
2018-04-14T14:40:36.854Z,2.73
2018-04-14T14:43:05.769Z,3.13
2018-04-14T14:45:39.159Z,3.23
2018-04-14T14:48:11.604Z,2.53
2018-04-14T14:50:40.739Z,2.70
2018-04-14T14:53:10.705Z,1.67
2018-04-14T14:55:39.135Z,1.87
2018-04-14T14:58:08.738Z,2.10
2018-04-14T15:00:38.352Z,6.43
2018-04-14T15:03:10.867Z,2.43
2018-04-14T15:05:43.459Z,6.30
2018-04-14T15:08:12.141Z,2.57
2018-04-14T15:10:40.523Z,2.30
2018-04-14T15:13:09.156Z,2.30
2018-04-14T15:15:38.171Z,2.90
2018-04-14T15:18:06.464Z,1.13
2018-04-14T15:20:34.800Z,2.87
2018-04-14T15:23:03.148Z,3.43
2018-04-14T15:25:31.515Z,1.73
2018-04-14T15:28:01.638Z,1.53
2018-04-14T15:30:30.285Z,1.20
2018-04-14T15:32:58.638Z,1.90
2018-04-14T15:35:26.962Z,1.40
2018-04-14T15:37:55.322Z,1.77
2018-04-14T15:40:23.679Z,1.63
2018-04-14T15:42:52.118Z,1.40
2018-04-14T15:45:21.227Z,1.27
2018-04-14T15:47:50.042Z,1.37
2018-04-14T15:50:23.705Z,1.17
2018-04-14T15:52:52.922Z,1.17
2018-04-14T15:55:22.337Z,1.30
2018-04-14T15:57:50.635Z,1.73
2018-04-14T16:00:19.056Z,0.80
2018-04-14T16:02:47.412Z,2.90
2018-04-14T16:05:15.750Z,2.40
2018-04-14T16:07:44.959Z,2.03
2018-04-14T16:10:13.800Z,1.43
2018-04-14T16:12:42.191Z,10.80
2018-04-14T16:15:11.076Z,1.37
2018-04-14T16:17:39.595Z,1.77
2018-04-14T16:20:08.016Z,51.87
2018-04-14T16:22:56.509Z,3.00
2018-04-14T16:28:25.520Z,3.10
2018-04-14T16:30:56.365Z,0.97
2018-04-14T16:33:24.674Z,1.53
2018-04-14T16:35:52.982Z,1.67
2018-04-14T16:38:21.266Z,5.10
2018-04-14T16:40:49.588Z,2.03
2018-04-14T16:43:17.999Z,1.47
2018-04-14T16:45:46.397Z,3.33
2018-04-14T16:48:15.455Z,2.73
2018-04-14T16:50:43.782Z,3.20
2018-04-14T16:53:12.954Z,4.97
2018-04-14T16:55:41.291Z,1.33
2018-04-14T16:58:10.003Z,2.03
2018-04-14T17:00:38.317Z,1.90
2018-04-14T17:03:06.614Z,2.43
2018-04-14T17:05:34.951Z,2.10
2018-04-14T17:08:03.245Z,2.17
2018-04-14T17:10:32.324Z,2.43
2018-04-14T17:13:00.631Z,2.60
2018-04-14T17:15:28.987Z,1.60
2018-04-14T17:17:57.362Z,1.37
2018-04-14T17:20:26.315Z,1.90
2018-04-14T17:22:54.971Z,6.00
2018-04-14T17:25:23.339Z,2.70
2018-04-14T17:27:51.644Z,4.53
2018-04-14T17:30:19.962Z,3.53
2018-04-14T17:32:48.276Z,2.57
2018-04-14T17:35:16.557Z,2.20
2018-04-14T17:37:44.899Z,3.10
2018-04-14T17:40:13.244Z,3.77
2018-04-14T17:42:41.532Z,3.17
2018-04-14T17:45:09.814Z,2.90
2018-04-14T17:47:38.148Z,7.93
2018-04-14T17:50:06.479Z,4.17
2018-04-14T17:52:36.947Z,2.70
2018-04-14T17:55:05.448Z,3.93
2018-04-14T17:57:34.485Z,3.63
2018-04-14T18:00:02.810Z,2.90
2018-04-14T18:02:31.191Z,6.93
2018-04-14T18:04:59.523Z,2.30
2018-04-14T18:07:27.810Z,2.93
2018-04-14T18:09:56.093Z,2.23
2018-04-14T18:12:24.410Z,3.83
2018-04-14T18:14:53.267Z,9.83
2018-04-14T18:17:21.575Z,2.60
2018-04-14T18:19:49.891Z,12.20
2018-04-14T18:22:18.171Z,4.00
2018-04-14T18:24:46.470Z,4.93
2018-04-14T18:27:14.746Z,2.40
2018-04-14T18:29:43.061Z,4.60
2018-04-14T18:32:12.177Z,4.50
2018-04-14T18:34:40.713Z,2.77
2018-04-14T18:37:09.952Z,2.77
2018-04-14T18:39:38.345Z,3.20
2018-04-14T18:42:06.687Z,8.97
2018-04-14T18:44:35.042Z,4.03
2018-04-14T18:47:03.384Z,8.90
2018-04-14T18:49:31.678Z,8.93
2018-04-14T18:52:01.061Z,10.20
2018-04-14T18:54:29.435Z,6.90
2018-04-14T18:56:57.789Z,5.87
2018-04-14T18:59:27.138Z,6.57
2018-04-14T19:01:55.494Z,8.30
2018-04-14T19:04:24.533Z,10.97
2018-04-14T19:06:52.853Z,6.87
2018-04-14T19:09:21.257Z,6.97
2018-04-14T19:11:49.571Z,10.60
2018-04-14T19:14:17.879Z,7.43
2018-04-14T19:16:46.558Z,11.50
2018-04-14T19:19:15.322Z,25.97
2018-04-14T19:21:44.198Z,7.10
2018-04-14T19:24:13.840Z,326.17
2018-04-14T19:31:56.454Z,5.10
2018-04-14T19:34:24.699Z,7.30
2018-04-14T19:36:53.741Z,4.60
2018-04-14T19:39:22.035Z,7.60
2018-04-14T19:41:50.311Z,8.43
2018-04-14T19:44:18.644Z,8.90
2018-04-14T19:46:46.968Z,10.73
2018-04-14T19:49:16.178Z,8.67
2018-04-14T19:51:44.449Z,11.03
2018-04-14T19:54:12.772Z,8.30
2018-04-14T19:56:41.067Z,14.50
2018-04-14T19:59:09.369Z,6.90
2018-04-14T20:01:37.683Z,8.50
2018-04-14T20:04:06.733Z,11.77
2018-04-14T20:06:35.041Z,11.63
2018-04-14T20:09:04.133Z,5.93
2018-04-14T20:11:32.428Z,9.07
2018-04-14T20:14:01.560Z,5.70
2018-04-14T20:16:29.904Z,13.40
2018-04-14T20:18:58.199Z,8.83
2018-04-14T20:21:26.488Z,6.77
2018-04-14T20:23:54.814Z,9.30
2018-04-14T20:26:23.884Z,9.30
2018-04-14T20:28:52.177Z,8.90
2018-04-14T20:31:20.533Z,11.37
2018-04-14T20:33:48.821Z,9.83
2018-04-14T20:36:17.127Z,9.03
2018-04-14T20:38:46.280Z,10.33
2018-04-14T20:41:14.588Z,11.20
2018-04-14T20:49:42.445Z,5.93
2018-04-14T20:52:10.707Z,7.63
2018-04-14T20:54:39.177Z,16.07
2018-04-14T20:57:07.461Z,9.87
2018-04-14T20:59:35.742Z,7.30
2018-04-14T21:02:04.045Z,10.53
2018-04-14T21:04:32.564Z,9.67
2018-04-14T21:07:00.863Z,12.70
2018-04-14T21:09:29.503Z,12.00
2018-04-14T21:11:57.828Z,13.13
2018-04-14T21:14:26.135Z,6.93
2018-04-14T21:16:54.430Z,9.87
2018-04-14T21:19:22.718Z,6.80
2018-04-14T21:21:50.985Z,7.83
2018-04-14T21:24:19.321Z,10.53
2018-04-14T21:26:47.635Z,11.97
2018-04-14T21:29:15.913Z,12.17
2018-04-14T21:31:44.277Z,12.20
2018-04-14T21:34:12.565Z,9.50
2018-04-14T21:36:40.892Z,10.57
2018-04-14T21:39:09.214Z,16.07
2018-04-14T21:41:37.571Z,14.00
2018-04-14T21:44:05.846Z,8.30
2018-04-14T21:46:40.339Z,11.00
2018-04-14T21:49:14.418Z,8.37
2018-04-14T21:51:48.158Z,8.30
2018-04-14T21:54:22.051Z,8.60
2018-04-14T21:56:55.889Z,12.33
2018-04-14T21:59:30.892Z,10.70
2018-04-14T22:02:04.768Z,7.93
2018-04-14T22:04:33.264Z,9.90
2018-04-14T22:07:01.543Z,7.97
2018-04-14T22:09:29.839Z,8.00
2018-04-14T22:11:58.144Z,10.70
2018-04-14T22:14:33.388Z,8.07
2018-04-14T22:17:01.991Z,14.33
2018-04-14T22:19:30.272Z,10.20
2018-04-14T22:21:58.573Z,10.67
2018-04-14T22:24:26.857Z,8.63
2018-04-14T22:26:55.156Z,11.17
2018-04-14T22:29:23.522Z,11.00
2018-04-14T22:31:51.807Z,10.23
2018-04-14T22:34:20.085Z,13.53
2018-04-14T22:36:48.400Z,7.60
2018-04-14T22:39:16.684Z,10.00
2018-04-14T22:41:44.963Z,9.00
2018-04-14T22:44:13.266Z,10.13
2018-04-14T22:46:41.553Z,9.87
2018-04-14T22:49:09.841Z,16.47
2018-04-14T22:51:38.136Z,9.83
2018-04-14T22:54:06.424Z,6.27
2018-04-14T22:56:34.728Z,8.30
2018-04-14T22:59:03.012Z,9.07
2018-04-14T23:01:31.289Z,11.80
2018-04-14T23:03:59.577Z,10.03
2018-04-14T23:06:27.879Z,10.87
2018-04-14T23:08:56.185Z,10.60
2018-04-14T23:11:25.253Z,11.20
2018-04-14T23:13:53.551Z,11.03
2018-04-14T23:16:21.929Z,9.20
2018-04-14T23:18:50.235Z,12.10
2018-04-14T23:21:18.552Z,9.50
2018-04-14T23:23:46.831Z,11.60
2018-04-14T23:26:15.117Z,9.60
2018-04-14T23:28:43.471Z,5.70
2018-04-14T23:31:11.749Z,8.27
2018-04-14T23:33:40.067Z,8.30
2018-04-14T23:36:08.361Z,11.70
2018-04-14T23:38:36.673Z,8.40
2018-04-14T23:41:05.120Z,15.20
2018-04-14T23:43:33.401Z,13.87
2018-04-14T23:46:01.692Z,12.47
2018-04-14T23:48:30.125Z,10.23
2018-04-14T23:50:58.403Z,5.90
2018-04-14T23:53:26.678Z,8.03
2018-04-14T23:55:55.022Z,7.20
2018-04-14T23:58:23.328Z,5.97
